createdAt,value
2018-09-26T00:00:06.524Z,96671.11
2018-09-26T00:02:32.512Z,96672.08
2018-09-26T00:04:58.500Z,96668.50
2018-09-26T00:07:24.485Z,96667.68
2018-09-26T00:09:50.504Z,96663.55
2018-09-26T00:12:16.521Z,96668.27
2018-09-26T00:14:42.530Z,96663.73
2018-09-26T00:17:08.547Z,96664.69
2018-09-26T00:19:34.553Z,96664.84
2018-09-26T00:22:00.561Z,96666.22
2018-09-26T00:24:26.553Z,96673.28
2018-09-26T00:26:52.551Z,96669.15
2018-09-26T00:29:18.530Z,96670.12
2018-09-26T00:31:44.551Z,96668.51
2018-09-26T00:34:10.533Z,96671.82
2018-09-26T00:36:36.522Z,96664.93
2018-09-26T00:39:02.543Z,96669.63
2018-09-26T00:41:28.525Z,96667.27
2018-09-26T00:43:54.507Z,96677.48
2018-09-26T00:46:20.495Z,96669.39
2018-09-26T00:48:46.500Z,96667.60
2018-09-26T00:51:12.487Z,96675.45
2018-09-26T00:53:38.478Z,96674.48
2018-09-26T00:56:04.482Z,96678.21
2018-09-26T00:58:30.558Z,96674.22
2018-09-26T01:00:56.552Z,96678.77
2018-09-26T01:03:22.572Z,96676.60
2018-09-26T01:05:48.584Z,96676.34
2018-09-26T01:08:14.570Z,96671.80
2018-09-26T01:10:40.555Z,96677.86
2018-09-26T01:13:06.557Z,96677.30
2018-09-26T01:15:32.571Z,96679.23
2018-09-26T01:17:58.552Z,96679.00
2018-09-26T01:20:24.572Z,96678.45
2018-09-26T01:22:50.580Z,96685.34
2018-09-26T01:25:16.598Z,96679.00
2018-09-26T01:27:42.583Z,96683.28
2018-09-26T01:30:08.575Z,96690.59
2018-09-26T01:32:34.551Z,96688.00
2018-09-26T01:35:00.564Z,96685.39
2018-09-26T01:37:26.583Z,96689.94
2018-09-26T01:39:52.573Z,96687.59
2018-09-26T01:42:18.592Z,96689.12
2018-09-26T01:44:44.593Z,96687.33
2018-09-26T01:47:10.655Z,96689.12
2018-09-26T01:49:36.636Z,96680.62
2018-09-26T01:52:02.623Z,96683.52
2018-09-26T01:54:28.710Z,96682.97
2018-09-26T01:56:54.717Z,96679.39
2018-09-26T01:59:20.726Z,96679.16
2018-09-26T02:01:46.747Z,96679.98
2018-09-26T02:04:12.740Z,96682.88
2018-09-26T02:06:38.752Z,96679.30
2018-09-26T02:09:04.765Z,96682.64
2018-09-26T02:11:30.740Z,96680.86
2018-09-26T02:13:56.733Z,96683.20
2018-09-26T02:16:22.794Z,96690.09
2018-09-26T02:18:48.730Z,96690.64
2018-09-26T02:21:14.742Z,96683.75
2018-09-26T02:23:40.757Z,96681.97
2018-09-26T02:26:06.732Z,96681.73
2018-09-26T02:28:32.724Z,96683.94
2018-09-26T02:30:58.712Z,96679.71
2018-09-26T02:33:24.715Z,96682.84
2018-09-26T02:35:50.713Z,96681.33
2018-09-26T02:38:16.720Z,96678.34
2018-09-26T02:40:42.730Z,96675.58
2018-09-26T02:43:08.749Z,96673.94
2018-09-26T02:45:34.766Z,96675.73
2018-09-26T02:48:00.786Z,96673.53
2018-09-26T02:50:26.753Z,96674.11
2018-09-26T02:52:52.776Z,96672.73
2018-09-26T02:55:18.782Z,96667.52
2018-09-26T02:57:44.769Z,96676.61
2018-09-26T03:00:10.749Z,96679.36
2018-09-26T03:02:36.730Z,96680.92
2018-09-26T03:05:02.725Z,96683.26
2018-09-26T03:07:28.712Z,96678.30
2018-09-26T03:09:54.716Z,96675.96
2018-09-26T03:12:20.700Z,96669.22
2018-09-26T03:14:46.688Z,96676.52
2018-09-26T03:17:12.667Z,96670.36
2018-09-26T03:19:38.679Z,96672.16
2018-09-26T03:22:04.681Z,96669.78
2018-09-26T03:24:30.668Z,96671.74
2018-09-26T03:26:56.652Z,96674.23
2018-09-26T03:29:22.646Z,96678.77
2018-09-26T03:31:48.633Z,96673.44
2018-09-26T03:34:14.614Z,96675.20
2018-09-26T03:36:40.628Z,96675.61
2018-09-26T03:39:06.630Z,96678.13
2018-09-26T03:41:32.685Z,96670.98
2018-09-26T03:43:58.706Z,96681.85
2018-09-26T03:46:24.715Z,96677.95
2018-09-26T03:48:50.708Z,96678.36
2018-09-26T03:51:16.690Z,96675.05
2018-09-26T03:53:42.697Z,96674.49
2018-09-26T03:56:08.723Z,96678.05
2018-09-26T03:58:34.737Z,96678.30
2018-09-26T04:01:00.727Z,96680.50
2018-09-26T04:03:26.738Z,96689.56
2018-09-26T04:05:52.731Z,96682.30
2018-09-26T04:08:18.706Z,96686.42
2018-09-26T04:10:44.693Z,96693.45
2018-09-26T04:13:10.737Z,96694.57
2018-09-26T04:15:36.709Z,96700.91
2018-09-26T04:18:02.733Z,96694.02
2018-09-26T04:20:28.797Z,96697.73
2018-09-26T04:22:54.759Z,96706.00
2018-09-26T04:25:20.773Z,96707.14
2018-09-26T04:27:46.808Z,96715.09
2018-09-26T04:30:12.889Z,96721.83
2018-09-26T04:32:38.978Z,96720.59
2018-09-26T04:35:04.887Z,96715.50
2018-09-26T04:37:30.912Z,96720.04
2018-09-26T04:39:56.920Z,96721.01
2018-09-26T04:42:23.328Z,96724.31
2018-09-26T04:44:49.296Z,96730.80
2018-09-26T04:47:15.335Z,96734.92
2018-09-26T04:49:41.354Z,96738.50
2018-09-26T04:52:07.380Z,96742.41
2018-09-26T04:54:33.373Z,96741.81
2018-09-26T04:56:59.377Z,96743.60
2018-09-26T04:59:25.829Z,96742.78
2018-09-26T05:01:51.770Z,96743.52
2018-09-26T05:04:17.784Z,96740.94
2018-09-26T05:06:43.770Z,96744.66
2018-09-26T05:09:09.808Z,96756.78
2018-09-26T05:11:35.827Z,96749.11
2018-09-26T05:14:01.839Z,96751.05
2018-09-26T05:16:27.851Z,96752.15
2018-09-26T05:18:53.832Z,96753.15
2018-09-26T05:21:19.989Z,96753.30
2018-09-26T05:23:46.040Z,96755.64
2018-09-26T05:26:12.022Z,96754.02
2018-09-26T05:28:38.004Z,96755.95
2018-09-26T05:31:04.005Z,96761.93
2018-09-26T05:33:29.981Z,96756.33
2018-09-26T05:35:55.974Z,96767.30
2018-09-26T05:38:21.957Z,96768.13
2018-09-26T05:40:47.939Z,96770.14
2018-09-26T05:43:14.012Z,96775.09
2018-09-26T05:45:40.006Z,96777.44
2018-09-26T05:48:06.097Z,96779.92
2018-09-26T05:50:32.094Z,96781.80
2018-09-26T05:52:58.145Z,96784.16
2018-09-26T05:55:24.128Z,96787.59
2018-09-26T05:57:50.137Z,96795.67
2018-09-26T06:00:16.271Z,96799.20
2018-09-26T06:02:42.286Z,96793.34
2018-09-26T06:05:08.267Z,96798.61
2018-09-26T06:07:34.257Z,96796.41
2018-09-26T06:10:00.266Z,96804.91
2018-09-26T06:12:26.246Z,96808.06
2018-09-26T06:14:52.427Z,96810.13
2018-09-26T06:17:18.458Z,96808.34
2018-09-26T06:19:44.470Z,96814.54
2018-09-26T06:22:10.609Z,96813.43
2018-09-26T06:24:36.642Z,96816.19
2018-09-26T06:27:02.593Z,96817.97
2018-09-26T06:29:28.583Z,96813.16
2018-09-26T06:31:54.670Z,96814.45
2018-09-26T06:34:21.900Z,96809.77
2018-09-26T06:36:48.173Z,96811.55
2018-09-26T06:39:14.227Z,96817.06
2018-09-26T06:41:40.211Z,96822.25
2018-09-26T06:44:06.186Z,96824.86
2018-09-26T06:46:32.188Z,96826.23
2018-09-26T06:48:58.246Z,96823.31
2018-09-26T06:51:24.232Z,96833.36
2018-09-26T06:53:50.278Z,96827.84
2018-09-26T06:56:16.231Z,96832.80
2018-09-26T06:58:42.259Z,96832.80
2018-09-26T07:01:08.257Z,96829.78
2018-09-26T07:03:34.376Z,96825.97
2018-09-26T07:06:00.458Z,96831.23
2018-09-26T07:08:26.441Z,96827.34
2018-09-26T07:10:52.424Z,96826.94
2018-09-26T07:13:18.435Z,96829.45
2018-09-26T07:15:44.580Z,96832.06
2018-09-26T07:18:10.572Z,96828.94
2018-09-26T07:20:36.585Z,96834.12
2018-09-26T07:23:02.600Z,96830.54
2018-09-26T07:25:28.612Z,96822.59
2018-09-26T07:27:54.634Z,96826.45
2018-09-26T07:30:20.617Z,96828.10
2018-09-26T07:32:46.654Z,96826.31
2018-09-26T07:35:12.684Z,96827.45
2018-09-26T07:37:38.646Z,96821.36
2018-09-26T07:40:04.639Z,96823.42
2018-09-26T07:42:30.623Z,96820.57
2018-09-26T07:44:56.618Z,96823.27
2018-09-26T07:47:22.599Z,96822.14
2018-09-26T07:49:48.604Z,96821.54
2018-09-26T07:52:14.629Z,96819.77
2018-09-26T07:54:40.612Z,96824.49
2018-09-26T07:57:06.617Z,96823.12
2018-09-26T07:59:32.619Z,96826.30
2018-09-26T08:01:58.598Z,96826.44
2018-09-26T08:04:24.600Z,96822.42
2018-09-26T08:06:50.587Z,96827.73
2018-09-26T08:09:16.576Z,96823.66
2018-09-26T08:11:42.604Z,96827.04
2018-09-26T08:14:08.580Z,96822.41
2018-09-26T08:16:34.658Z,96821.36
2018-09-26T08:19:00.650Z,96816.92
2018-09-26T08:21:26.708Z,96810.44
2018-09-26T08:23:52.737Z,96811.67
2018-09-26T08:26:18.743Z,96806.17
2018-09-26T08:28:44.993Z,96815.91
2018-09-26T08:31:10.995Z,96807.64
2018-09-26T08:33:37.007Z,96818.58
2018-09-26T08:36:03.013Z,96813.07
2018-09-26T08:38:29.006Z,96814.45
2018-09-26T08:40:55.053Z,96816.64
2018-09-26T08:43:21.057Z,96812.78
2018-09-26T08:45:47.066Z,96816.73
2018-09-26T08:48:14.238Z,96811.55
2018-09-26T08:50:40.254Z,96808.24
2018-09-26T08:53:06.231Z,96808.06
2018-09-26T08:55:32.281Z,96803.53
2018-09-26T08:57:58.313Z,96809.77
2018-09-26T09:00:24.344Z,96808.39
2018-09-26T09:02:50.404Z,96805.08
2018-09-26T09:05:16.400Z,96810.31
2018-09-26T09:07:42.408Z,96812.83
2018-09-26T09:10:08.396Z,96815.17
2018-09-26T09:12:34.366Z,96810.63
2018-09-26T09:15:00.380Z,96809.43
2018-09-26T09:17:26.402Z,96811.36
2018-09-26T09:19:52.377Z,96808.75
2018-09-26T09:22:18.410Z,96807.55
2018-09-26T09:24:44.410Z,96817.19
2018-09-26T09:27:10.461Z,96801.77
2018-09-26T09:29:36.400Z,96817.73
2018-09-26T09:32:02.467Z,96814.98
2018-09-26T09:34:28.394Z,96814.84
2018-09-26T09:36:54.416Z,96826.82
2018-09-26T09:39:20.419Z,96822.83
2018-09-26T09:41:46.399Z,96822.59
2018-09-26T09:44:12.400Z,96823.70
2018-09-26T09:46:38.404Z,96824.11
2018-09-26T09:49:04.485Z,96823.97
2018-09-26T09:51:30.478Z,96819.84
2018-09-26T09:53:56.478Z,96821.77
2018-09-26T09:56:22.584Z,96820.57
2018-09-26T09:58:48.567Z,96820.16
2018-09-26T10:01:14.561Z,96819.58
2018-09-26T10:03:40.603Z,96817.81
2018-09-26T10:06:06.606Z,96828.56
2018-09-26T10:08:36.793Z,96825.66
2018-09-26T10:11:02.688Z,96817.41
2018-09-26T10:13:28.677Z,96815.86
2018-09-26T10:15:54.676Z,96821.95
2018-09-26T10:18:20.701Z,96819.44
2018-09-26T10:20:46.724Z,96821.31
2018-09-26T10:23:12.704Z,96817.02
2018-09-26T10:25:38.724Z,96812.02
2018-09-26T10:28:04.770Z,96819.40
2018-09-26T10:30:30.722Z,96821.59
2018-09-26T10:32:56.728Z,96822.80
2018-09-26T10:35:22.746Z,96815.77
2018-09-26T10:37:48.757Z,96817.80
2018-09-26T10:40:14.768Z,96806.00
2018-09-26T10:42:40.885Z,96810.50
2018-09-26T10:45:06.916Z,96816.28
2018-09-26T10:47:32.958Z,96802.37
2018-09-26T10:49:59.025Z,96797.92
2018-09-26T10:52:25.033Z,96803.02
2018-09-26T10:54:51.118Z,96793.79
2018-09-26T10:57:17.108Z,96794.25
2018-09-26T10:59:43.121Z,96794.20
2018-09-26T11:02:09.192Z,96796.78
2018-09-26T11:04:35.157Z,96778.24
2018-09-26T11:07:01.143Z,96792.02
2018-09-26T11:09:27.135Z,96785.39
2018-09-26T11:11:53.155Z,96782.55
2018-09-26T11:14:19.182Z,96785.45
2018-09-26T11:16:45.181Z,96787.23
2018-09-26T11:19:11.162Z,96781.59
2018-09-26T11:21:37.171Z,96777.05
2018-09-26T11:24:03.176Z,96771.95
2018-09-26T11:26:29.280Z,96776.17
2018-09-26T11:28:55.205Z,96772.36
2018-09-26T11:31:21.195Z,96767.64
2018-09-26T11:33:47.238Z,96773.97
2018-09-26T11:36:13.225Z,96774.20
2018-09-26T11:38:39.230Z,96759.79
2018-09-26T11:41:05.250Z,96763.27
2018-09-26T11:43:31.200Z,96762.04
2018-09-26T11:45:57.246Z,96761.39
2018-09-26T11:48:23.258Z,96762.22
2018-09-26T11:50:49.273Z,96756.30
2018-09-26T11:53:15.270Z,96755.74
2018-09-26T11:55:41.257Z,96752.41
2018-09-26T11:58:07.300Z,96748.86
2018-09-26T12:00:33.348Z,96735.38
2018-09-26T12:02:58.874Z,96745.42
2018-09-26T12:05:24.351Z,96750.94
2018-09-26T12:07:49.844Z,96743.27
2018-09-26T12:10:15.341Z,96739.13
2018-09-26T12:12:40.822Z,96736.28
2018-09-26T12:15:06.295Z,96736.52
2018-09-26T12:17:31.785Z,96721.93
2018-09-26T12:19:57.258Z,96721.93
2018-09-26T12:22:22.877Z,96717.97
2018-09-26T12:24:48.256Z,96724.86
2018-09-26T12:27:13.752Z,96711.64
2018-09-26T12:29:39.238Z,96713.16
2018-09-26T12:32:04.742Z,96725.88
2018-09-26T12:34:30.225Z,96731.56
2018-09-26T12:36:55.729Z,96719.87
2018-09-26T12:39:21.223Z,96721.09
2018-09-26T12:41:46.757Z,96717.94
2018-09-26T12:44:12.243Z,96719.22
2018-09-26T12:46:37.749Z,96724.17
2018-09-26T12:49:03.326Z,96721.42
2018-09-26T12:51:28.794Z,96721.97
2018-09-26T12:53:54.451Z,96719.22
2018-09-26T12:56:19.782Z,96722.53
2018-09-26T12:58:45.288Z,96715.50
2018-09-26T13:01:10.805Z,96726.66
2018-09-26T13:03:36.304Z,96719.22
2018-09-26T13:06:01.791Z,96721.01
2018-09-26T13:08:27.337Z,96718.40
2018-09-26T13:10:52.776Z,96730.14
2018-09-26T13:13:18.273Z,96725.60
2018-09-26T13:15:43.759Z,96715.31
2018-09-26T13:18:09.287Z,96716.84
2018-09-26T13:20:34.767Z,96715.05
2018-09-26T13:23:00.270Z,96717.80
2018-09-26T13:25:25.816Z,96713.30
2018-09-26T13:27:51.268Z,96706.97
2018-09-26T13:30:16.780Z,96706.70
2018-09-26T13:32:42.307Z,96703.95
2018-09-26T13:35:07.805Z,96706.88
2018-09-26T13:37:33.388Z,96704.27
2018-09-26T13:39:58.921Z,96705.09
2018-09-26T13:42:24.463Z,96710.73
2018-09-26T13:44:49.907Z,96709.77
2018-09-26T13:47:15.414Z,96701.37
2018-09-26T13:49:40.914Z,96697.06
2018-09-26T13:52:06.468Z,96698.44
2018-09-26T13:54:31.981Z,96696.78
2018-09-26T13:56:57.403Z,96698.89
2018-09-26T13:59:22.924Z,96694.50
2018-09-26T14:01:48.416Z,96694.20
2018-09-26T14:04:13.938Z,96693.06
2018-09-26T14:06:39.458Z,96691.69
2018-09-26T14:09:04.919Z,96694.44
2018-09-26T14:11:30.429Z,96691.28
2018-09-26T14:13:55.956Z,96694.44
2018-09-26T14:16:21.461Z,96700.09
2018-09-26T14:18:46.955Z,96700.27
2018-09-26T14:21:12.453Z,96698.07
2018-09-26T14:23:38.043Z,96692.56
2018-09-26T14:26:03.449Z,96691.28
2018-09-26T14:28:29.145Z,96695.73
2018-09-26T14:30:57.086Z,96693.39
2018-09-26T14:33:20.653Z,96698.63
2018-09-26T14:35:46.110Z,96698.80
2018-09-26T14:38:16.562Z,96692.23
2018-09-26T14:40:41.841Z,96694.72
2018-09-26T14:43:07.327Z,96696.09
2018-09-26T14:45:32.888Z,96698.44
2018-09-26T14:47:58.336Z,96700.23
2018-09-26T14:50:23.915Z,96703.30
2018-09-26T14:52:49.400Z,96700.95
2018-09-26T14:55:14.870Z,96706.23
2018-09-26T14:57:40.345Z,96709.36
2018-09-26T15:00:05.844Z,96709.77
2018-09-26T15:02:31.475Z,96711.00
2018-09-26T15:04:56.973Z,96717.48
2018-09-26T15:07:22.524Z,96722.42
2018-09-26T15:09:47.956Z,96725.18
2018-09-26T15:12:13.679Z,96725.42
2018-09-26T15:14:39.113Z,96723.39
2018-09-26T15:17:04.597Z,96721.05
2018-09-26T15:19:30.228Z,96723.95
2018-09-26T15:21:55.747Z,96720.23
2018-09-26T15:24:21.302Z,96727.94
2018-09-26T15:26:46.762Z,96731.38
2018-09-26T15:29:12.256Z,96727.52
2018-09-26T15:31:37.739Z,96737.30
2018-09-26T15:34:03.211Z,96728.63
2018-09-26T15:36:28.703Z,96727.61
2018-09-26T15:38:54.178Z,96734.91
2018-09-26T15:41:19.687Z,96723.90
2018-09-26T15:43:45.219Z,96726.47
2018-09-26T15:46:10.713Z,96732.56
2018-09-26T15:48:36.305Z,96732.39
2018-09-26T15:51:01.795Z,96732.80
2018-09-26T15:53:27.279Z,96733.67
2018-09-26T15:55:52.781Z,96737.80
2018-09-26T15:58:18.295Z,96736.98
2018-09-26T16:00:43.948Z,96732.06
2018-09-26T16:03:09.458Z,96738.95
2018-09-26T16:05:34.926Z,96744.59
2018-09-26T16:08:00.417Z,96747.77
2018-09-26T16:10:26.043Z,96750.52
2018-09-26T16:12:51.464Z,96743.95
2018-09-26T16:15:16.964Z,96756.07
2018-09-26T16:17:42.483Z,96758.17
2018-09-26T16:20:08.066Z,96766.02
2018-09-26T16:22:33.553Z,96763.63
2018-09-26T16:24:59.027Z,96772.53
2018-09-26T16:27:24.572Z,96757.62
2018-09-26T16:29:50.075Z,96763.14
2018-09-26T16:32:15.631Z,96757.39
2018-09-26T16:34:41.042Z,96772.68
2018-09-26T16:37:06.546Z,96767.34
2018-09-26T16:39:32.207Z,96765.88
2018-09-26T16:41:57.569Z,96762.86
2018-09-26T16:44:23.187Z,96765.52
2018-09-26T16:46:49.261Z,96769.14
2018-09-26T16:49:14.799Z,96775.05
2018-09-26T16:51:40.283Z,96783.39
2018-09-26T16:54:05.882Z,96779.72
2018-09-26T16:56:31.309Z,96786.51
2018-09-26T16:58:56.808Z,96787.06
2018-09-26T17:01:22.286Z,96786.83
2018-09-26T17:03:47.848Z,96796.60
2018-09-26T17:06:13.468Z,96788.44
2018-09-26T17:08:38.914Z,96796.28
2018-09-26T17:11:04.466Z,96791.78
2018-09-26T17:13:29.970Z,96789.98
2018-09-26T17:15:55.492Z,96802.20
2018-09-26T17:18:21.091Z,96801.14
2018-09-26T17:20:46.532Z,96797.56
2018-09-26T17:23:12.215Z,96794.98
2018-09-26T17:25:37.728Z,96790.13
2018-09-26T17:28:03.217Z,96799.72
2018-09-26T17:30:28.718Z,96796.23
2018-09-26T17:32:54.205Z,96805.41
2018-09-26T17:35:19.756Z,96817.17
2018-09-26T17:37:45.309Z,96809.64
2018-09-26T17:40:10.783Z,96812.90
2018-09-26T17:42:36.220Z,96814.75
2018-09-26T17:45:01.732Z,96821.80
2018-09-26T17:47:27.228Z,96825.30
2018-09-26T17:49:53.100Z,96827.50
2018-09-26T17:52:18.637Z,96817.77
2018-09-26T17:54:44.219Z,96815.84
2018-09-26T17:57:09.603Z,96821.34
2018-09-26T17:59:35.326Z,96826.27
2018-09-26T18:02:00.812Z,96828.78
2018-09-26T18:04:28.987Z,96824.75
2018-09-26T18:06:54.467Z,96824.84
2018-09-26T18:09:20.018Z,96824.61
2018-09-26T18:11:45.531Z,96824.20
2018-09-26T18:14:11.082Z,96825.16
2018-09-26T18:16:36.656Z,96821.99
2018-09-26T18:19:02.363Z,96825.57
2018-09-26T18:21:27.848Z,96820.48
2018-09-26T18:23:53.362Z,96819.09
2018-09-26T18:26:20.307Z,96816.53
2018-09-26T18:28:45.974Z,96809.26
2018-09-26T18:31:11.582Z,96809.52
2018-09-26T18:33:37.040Z,96811.96
2018-09-26T18:36:02.560Z,96811.55
2018-09-26T18:38:28.033Z,96809.21
2018-09-26T18:40:53.531Z,96811.22
2018-09-26T18:43:19.073Z,96808.75
2018-09-26T18:45:44.520Z,96801.87
2018-09-26T18:48:10.025Z,96812.33
2018-09-26T18:50:35.545Z,96813.78
2018-09-26T18:53:01.046Z,96816.03
2018-09-26T18:55:26.547Z,96813.92
2018-09-26T18:57:52.048Z,96810.62
2018-09-26T19:00:17.635Z,96810.25
2018-09-26T19:02:43.117Z,96820.06
2018-09-26T19:05:08.668Z,96825.06
2018-09-26T19:07:34.171Z,96822.86
2018-09-26T19:10:01.009Z,96817.67
2018-09-26T19:12:26.644Z,96817.98
2018-09-26T19:14:52.049Z,96826.39
2018-09-26T19:17:19.033Z,96819.41
2018-09-26T19:19:45.016Z,96828.81
2018-09-26T19:22:15.007Z,96829.27
2018-09-26T19:24:40.545Z,96822.14
2018-09-26T19:27:06.077Z,96827.66
2018-09-26T19:29:31.531Z,96830.69
2018-09-26T19:31:57.008Z,96834.99
2018-09-26T19:34:22.493Z,96823.33
2018-09-26T19:36:47.998Z,96822.09
2018-09-26T19:39:13.842Z,96821.69
2018-09-26T19:41:39.404Z,96824.61
2018-09-26T19:44:04.909Z,96830.26
2018-09-26T19:46:30.415Z,96835.11
2018-09-26T19:48:55.926Z,96830.16
2018-09-26T19:51:21.435Z,96835.80
2018-09-26T19:53:47.002Z,96828.52
2018-09-26T19:56:12.618Z,96831.58
2018-09-26T19:58:37.988Z,96828.03
2018-09-26T20:01:03.519Z,96826.25
2018-09-26T20:03:29.019Z,96829.14
2018-09-26T20:05:54.545Z,96846.34
2018-09-26T20:08:20.056Z,96842.62
2018-09-26T20:10:45.570Z,96843.66
2018-09-26T20:13:11.115Z,96836.81
2018-09-26T20:15:36.583Z,96826.82
2018-09-26T20:18:02.061Z,96827.37
2018-09-26T20:20:27.564Z,96831.49
2018-09-26T20:22:53.090Z,96835.30
2018-09-26T20:25:18.597Z,96841.94
2018-09-26T20:27:44.093Z,96837.95
2018-09-26T20:30:09.578Z,96837.13
2018-09-26T20:32:35.092Z,96833.01
2018-09-26T20:35:00.589Z,96831.63
2018-09-26T20:37:26.090Z,96834.55
2018-09-26T20:39:51.601Z,96833.97
2018-09-26T20:42:17.100Z,96832.59
2018-09-26T20:44:42.637Z,96835.10
2018-09-26T20:47:08.123Z,96833.59
2018-09-26T20:49:33.612Z,96832.91
2018-09-26T20:51:59.185Z,96835.24
2018-09-26T20:54:24.690Z,96830.98
2018-09-26T20:56:50.184Z,96830.16
2018-09-26T20:59:15.708Z,96830.33
2018-09-26T21:01:41.208Z,96835.96
2018-09-26T21:04:06.713Z,96832.25
2018-09-26T21:06:32.216Z,96825.38
2018-09-26T21:08:57.711Z,96820.02
2018-09-26T21:11:23.204Z,96824.56
2018-09-26T21:13:48.712Z,96828.44
2018-09-26T21:16:14.211Z,96826.66
2018-09-26T21:18:39.706Z,96824.05
2018-09-26T21:21:05.218Z,96828.44
2018-09-26T21:23:30.691Z,96827.61
2018-09-26T21:25:56.202Z,96836.83
2018-09-26T21:28:21.700Z,96832.56
2018-09-26T21:30:47.205Z,96824.05
2018-09-26T21:33:12.688Z,96827.10
2018-09-26T21:35:38.169Z,96833.56
2018-09-26T21:38:03.676Z,96839.47
2018-09-26T21:40:29.186Z,96834.69
2018-09-26T21:42:54.713Z,96837.69
2018-09-26T21:45:20.192Z,96844.00
2018-09-26T21:47:45.662Z,96845.55
2018-09-26T21:50:11.252Z,96838.41
2018-09-26T21:52:36.681Z,96839.92
2018-09-26T21:55:02.180Z,96838.95
2018-09-26T21:57:27.659Z,96835.41
2018-09-26T21:59:53.181Z,96828.13
2018-09-26T22:02:18.666Z,96831.67
2018-09-26T22:04:44.164Z,96832.25
2018-09-26T22:07:09.661Z,96831.30
2018-09-26T22:09:35.157Z,96824.56
2018-09-26T22:12:00.661Z,96827.45
2018-09-26T22:14:26.163Z,96826.48
2018-09-26T22:16:51.643Z,96822.13
2018-09-26T22:19:17.141Z,96819.78
2018-09-26T22:21:42.629Z,96818.82
2018-09-26T22:24:08.102Z,96835.45
2018-09-26T22:26:33.587Z,96827.76
2018-09-26T22:28:59.091Z,96826.38
2018-09-26T22:31:24.634Z,96823.95
2018-09-26T22:33:50.045Z,96831.88
2018-09-26T22:36:15.521Z,96828.62
2018-09-26T22:38:41.003Z,96832.19
2018-09-26T22:41:06.513Z,96824.91
2018-09-26T22:43:31.995Z,96823.13
2018-09-26T22:45:57.509Z,96825.22
2018-09-26T22:48:23.008Z,96825.08
2018-09-26T22:50:48.492Z,96827.83
2018-09-26T22:53:13.970Z,96827.41
2018-09-26T22:55:39.468Z,96828.92
2018-09-26T22:58:04.996Z,96828.38
2018-09-26T23:00:30.508Z,96821.27
2018-09-26T23:02:56.014Z,96825.39
2018-09-26T23:05:21.502Z,96825.39
2018-09-26T23:07:46.992Z,96824.56
2018-09-26T23:10:12.468Z,96818.24
2018-09-26T23:12:37.968Z,96814.67
2018-09-26T23:15:03.445Z,96819.79
2018-09-26T23:17:28.927Z,96820.75
2018-09-26T23:19:54.399Z,96821.30
2018-09-26T23:22:19.880Z,96812.64
2018-09-26T23:24:45.379Z,96815.39
2018-09-26T23:27:10.875Z,96807.15
2018-09-26T23:29:36.379Z,96813.05
2018-09-26T23:32:01.867Z,96811.44
2018-09-26T23:34:27.368Z,96807.87
2018-09-26T23:36:52.843Z,96803.89
2018-09-26T23:39:18.345Z,96802.69
2018-09-26T23:41:43.847Z,96799.35
2018-09-26T23:44:09.324Z,96796.05
2018-09-26T23:46:34.838Z,96793.86
2018-09-26T23:49:00.338Z,96789.08
2018-09-26T23:51:25.826Z,96789.91
2018-09-26T23:53:51.302Z,96783.59
2018-09-26T23:56:16.784Z,96783.59
2018-09-26T23:58:42.284Z,96773.14
